createdAt,value
2023-05-08T00:01:10.527Z,6.75
2023-05-08T00:03:40.122Z,6.71
2023-05-08T00:06:10.155Z,6.73
2023-05-08T00:08:42.261Z,6.71
2023-05-08T00:11:11.631Z,6.66
2023-05-08T00:13:41.845Z,6.69
2023-05-08T00:16:12.015Z,6.54
2023-05-08T00:18:41.916Z,6.56
2023-05-08T00:21:11.315Z,6.26
2023-05-08T00:23:42.158Z,6.16
2023-05-08T00:26:11.639Z,6.33
2023-05-08T00:28:41.452Z,6.47
2023-05-08T00:31:10.998Z,6.53
2023-05-08T00:33:40.433Z,6.48
2023-05-08T00:36:10.418Z,6.36
2023-05-08T00:38:41.214Z,6.31
2023-05-08T00:41:10.679Z,6.34
2023-05-08T00:43:40.447Z,6.38
2023-05-08T00:49:45.276Z,6.08
2023-05-08T00:52:15.428Z,5.95
2023-05-08T00:54:45.287Z,6.09
2023-05-08T00:57:15.236Z,6.18
2023-05-08T00:59:47.455Z,6.25
2023-05-08T01:02:17.481Z,6.25
2023-05-08T01:04:49.975Z,6.28
2023-05-08T01:07:20.734Z,6.29
2023-05-08T01:09:50.902Z,6.28
2023-05-08T01:12:28.507Z,6.34
2023-05-08T01:15:17.194Z,6.32
2023-05-08T01:18:03.543Z,6.26
2023-05-08T01:20:48.120Z,6.20
2023-05-08T01:24:20.100Z,6.23
2023-05-08T01:27:37.122Z,6.23
2023-05-08T01:30:57.335Z,6.21
2023-05-08T01:33:37.414Z,6.20
2023-05-08T01:36:25.608Z,6.21
2023-05-08T01:39:06.105Z,6.13
2023-05-08T01:41:38.602Z,6.06
2023-05-08T01:44:17.327Z,6.05
2023-05-08T01:46:51.728Z,6.05
2023-05-08T01:49:29.368Z,6.03
2023-05-08T01:52:04.768Z,6.02
2023-05-08T01:54:52.093Z,6.00
2023-05-08T01:57:26.013Z,5.95
2023-05-08T01:59:59.794Z,5.98
2023-05-08T02:02:32.948Z,5.98
2023-05-08T02:05:07.031Z,6.01
2023-05-08T02:07:39.063Z,6.01
2023-05-08T02:10:11.071Z,6.07
2023-05-08T02:12:42.614Z,6.12
2023-05-08T02:15:14.981Z,6.14
2023-05-08T02:17:46.914Z,6.14
2023-05-08T02:20:19.121Z,6.18
2023-05-08T02:22:52.925Z,6.21
2023-05-08T02:25:22.968Z,6.23
2023-05-08T02:27:55.916Z,6.29
2023-05-08T02:30:27.713Z,6.33
2023-05-08T02:33:00.709Z,6.36
2023-05-08T02:35:33.543Z,6.40
2023-05-08T02:38:04.797Z,6.42
2023-05-08T02:40:35.268Z,6.44
2023-05-08T02:43:04.870Z,6.51
2023-05-08T02:45:41.848Z,6.54
2023-05-08T02:48:15.788Z,6.58
2023-05-08T02:50:56.744Z,6.59
2023-05-08T02:53:34.783Z,6.55
2023-05-08T02:56:12.450Z,6.58
2023-05-08T02:58:47.692Z,6.63
2023-05-08T03:01:26.365Z,6.66
2023-05-08T03:04:05.217Z,6.72
2023-05-08T03:06:43.505Z,6.75
2023-05-08T03:09:22.242Z,6.75
2023-05-08T03:11:59.178Z,6.77
2023-05-08T03:14:31.003Z,6.81
2023-05-08T03:17:02.933Z,6.84
2023-05-08T03:19:39.786Z,6.89
2023-05-08T03:22:12.796Z,6.91
2023-05-08T03:24:45.355Z,6.94
2023-05-08T03:27:16.229Z,6.96
2023-05-08T03:29:47.900Z,6.89
2023-05-08T03:32:18.801Z,6.88
2023-05-08T03:34:48.964Z,6.91
2023-05-08T03:37:20.554Z,6.82
2023-05-08T03:39:50.170Z,6.76
2023-05-08T03:42:22.635Z,6.79
2023-05-08T03:44:54.296Z,6.84
2023-05-08T03:50:44.902Z,6.93
2023-05-08T03:53:14.433Z,6.92
2023-05-08T03:55:43.969Z,6.95
2023-05-08T03:58:21.264Z,6.99
2023-05-08T04:01:03.723Z,7.02
2023-05-08T04:03:51.391Z,7.04
2023-05-08T04:06:42.057Z,7.09
2023-05-08T04:09:25.052Z,7.14
2023-05-08T04:12:04.072Z,7.20
2023-05-08T04:14:42.557Z,7.28
2023-05-08T04:17:16.229Z,7.35
2023-05-08T04:19:49.399Z,7.46
2023-05-08T04:22:23.653Z,7.60
2023-05-08T04:24:54.725Z,7.72
2023-05-08T04:27:24.608Z,7.89
2023-05-08T04:29:53.908Z,8.08
2023-05-08T04:32:24.374Z,8.21
2023-05-08T04:34:53.889Z,8.34
2023-05-08T04:37:31.572Z,8.46
2023-05-08T04:40:01.447Z,8.64
2023-05-08T04:42:36.839Z,8.84
2023-05-08T04:45:08.139Z,9.09
2023-05-08T04:47:37.923Z,9.36
2023-05-08T04:50:08.543Z,9.64
2023-05-08T04:52:39.665Z,9.90
2023-05-08T04:55:11.606Z,10.15
2023-05-08T04:57:41.367Z,10.40
2023-05-08T05:00:12.983Z,10.52
2023-05-08T05:02:42.487Z,10.57
2023-05-08T05:05:12.643Z,10.55
2023-05-08T05:07:43.844Z,10.62
2023-05-08T05:10:13.549Z,10.77
2023-05-08T05:12:43.184Z,10.99
2023-05-08T05:15:14.085Z,11.22
2023-05-08T05:17:43.951Z,11.42
2023-05-08T05:20:15.269Z,11.62
2023-05-08T05:22:46.155Z,11.82
2023-05-08T05:25:16.147Z,11.99
2023-05-08T05:27:45.698Z,12.16
2023-05-08T05:30:15.809Z,12.30
2023-05-08T05:32:45.294Z,12.47
2023-05-08T05:35:14.893Z,12.63
2023-05-08T05:37:45.998Z,12.78
2023-05-08T05:40:15.817Z,12.88
2023-05-08T05:42:51.354Z,12.94
2023-05-08T05:45:21.654Z,13.05
2023-05-08T05:47:54.413Z,13.12
2023-05-08T05:50:24.222Z,13.20
2023-05-08T05:52:55.315Z,13.21
2023-05-08T05:55:24.758Z,13.23
2023-05-08T05:57:54.267Z,13.22
2023-05-08T06:00:24.204Z,13.24
2023-05-08T06:02:53.915Z,13.33
2023-05-08T06:05:23.593Z,13.39
2023-05-08T06:07:54.457Z,13.48
2023-05-08T06:10:24.348Z,13.55
2023-05-08T06:12:53.850Z,13.58
2023-05-08T06:15:24.334Z,13.56
2023-05-08T06:17:54.674Z,13.66
2023-05-08T06:20:24.984Z,13.75
2023-05-08T06:22:57.442Z,13.88
2023-05-08T06:25:28.396Z,13.97
2023-05-08T06:27:58.036Z,13.79
2023-05-08T06:30:27.582Z,13.76
2023-05-08T06:32:57.527Z,13.92
2023-05-08T06:35:27.065Z,14.02
2023-05-08T06:37:58.006Z,14.22
2023-05-08T06:40:27.515Z,14.46
2023-05-08T06:42:57.116Z,14.54
2023-05-08T06:45:26.578Z,14.71
2023-05-08T06:50:44.521Z,14.94
2023-05-08T06:53:13.953Z,15.01
2023-05-08T06:55:45.637Z,15.09
2023-05-08T06:58:15.478Z,15.18
2023-05-08T07:00:46.363Z,15.27
2023-05-08T07:03:16.179Z,15.38
2023-05-08T07:05:47.203Z,15.47
2023-05-08T07:08:16.663Z,15.56
2023-05-08T07:10:46.562Z,15.72
2023-05-08T07:13:20.290Z,15.85
2023-05-08T07:15:49.918Z,15.94
2023-05-08T07:18:19.791Z,16.03
2023-05-08T07:20:50.816Z,16.01
2023-05-08T07:23:20.369Z,16.00
2023-05-08T07:25:49.926Z,15.98
2023-05-08T07:28:19.290Z,15.93
2023-05-08T07:30:48.815Z,15.98
2023-05-08T07:33:18.293Z,16.17
2023-05-08T07:35:49.676Z,16.35
2023-05-08T07:38:19.120Z,16.46
2023-05-08T07:40:49.370Z,16.61
2023-05-08T07:43:18.828Z,16.86
2023-05-08T07:45:48.542Z,17.04
2023-05-08T07:48:18.188Z,17.08
2023-05-08T07:50:47.673Z,17.19
2023-05-08T07:53:18.756Z,17.46
2023-05-08T07:55:48.204Z,17.60
2023-05-08T07:58:17.766Z,17.56
2023-05-08T08:00:47.206Z,17.44
2023-05-08T08:03:17.688Z,17.52
2023-05-08T08:05:48.014Z,17.41
2023-05-08T08:08:18.897Z,17.28
2023-05-08T08:10:48.350Z,17.34
2023-05-08T08:13:19.217Z,17.51
2023-05-08T08:15:48.589Z,17.77
2023-05-08T08:18:18.198Z,18.00
2023-05-08T08:20:47.688Z,18.07
2023-05-08T08:23:18.583Z,18.20
2023-05-08T08:25:48.045Z,18.37
2023-05-08T08:28:18.255Z,18.47
2023-05-08T08:30:47.856Z,18.35
2023-05-08T08:33:19.103Z,18.36
2023-05-08T08:35:48.765Z,18.36
2023-05-08T08:38:19.686Z,18.26
2023-05-08T08:40:49.101Z,18.27
2023-05-08T08:43:18.627Z,18.44
2023-05-08T08:45:48.680Z,18.61
2023-05-08T08:48:19.283Z,18.51
2023-05-08T08:50:53.533Z,18.63
2023-05-08T08:53:32.492Z,18.70
2023-05-08T08:56:04.607Z,18.77
2023-05-08T08:58:40.026Z,18.85
2023-05-08T09:01:12.117Z,18.79
2023-05-08T09:03:43.115Z,18.83
2023-05-08T09:06:12.964Z,18.94
2023-05-08T09:08:44.146Z,19.08
2023-05-08T09:11:13.733Z,18.89
2023-05-08T09:13:43.259Z,18.86
2023-05-08T09:16:12.657Z,19.19
2023-05-08T09:18:42.387Z,19.38
2023-05-08T09:21:11.930Z,19.51
2023-05-08T09:23:58.218Z,19.55
2023-05-08T09:26:36.329Z,19.26
2023-05-08T09:29:14.325Z,19.17
2023-05-08T09:31:46.124Z,19.30
2023-05-08T09:34:28.619Z,19.34
2023-05-08T09:36:58.844Z,19.46
2023-05-08T09:39:30.796Z,19.63
2023-05-08T09:42:01.300Z,19.77
2023-05-08T09:44:31.063Z,19.82
2023-05-08T09:50:44.874Z,20.18
2023-05-08T09:53:14.332Z,20.24
2023-05-08T09:55:51.047Z,20.34
2023-05-08T09:58:20.561Z,20.34
2023-05-08T10:00:50.260Z,20.40
2023-05-08T10:03:20.109Z,20.46
2023-05-08T10:05:51.036Z,20.65
2023-05-08T10:08:23.400Z,20.64
2023-05-08T10:10:53.569Z,20.62
2023-05-08T10:13:23.179Z,20.75
2023-05-08T10:15:57.067Z,20.88
2023-05-08T10:18:30.596Z,20.97
2023-05-08T10:21:06.866Z,20.94
2023-05-08T10:23:37.058Z,20.96
2023-05-08T10:26:14.627Z,20.92
2023-05-08T10:28:50.425Z,21.02
2023-05-08T10:31:20.925Z,21.15
2023-05-08T10:33:54.417Z,21.09
2023-05-08T10:36:28.063Z,20.73
2023-05-08T10:39:00.816Z,20.56
2023-05-08T10:41:31.484Z,20.49
2023-05-08T10:44:03.572Z,20.75
2023-05-08T10:46:39.576Z,21.03
2023-05-08T10:49:18.403Z,21.18
2023-05-08T10:52:08.442Z,21.03
2023-05-08T10:55:04.800Z,20.90
2023-05-08T10:57:34.547Z,20.79
2023-05-08T11:00:04.287Z,20.57
2023-05-08T11:02:37.283Z,20.47
2023-05-08T11:05:20.720Z,20.40
2023-05-08T11:07:59.389Z,20.26
2023-05-08T11:10:33.551Z,20.17
2023-05-08T11:13:04.299Z,19.99
2023-05-08T11:15:41.300Z,19.83
2023-05-08T11:18:12.507Z,19.69
2023-05-08T11:20:43.717Z,19.66
2023-05-08T11:23:29.761Z,19.60
2023-05-08T11:26:04.012Z,19.48
2023-05-08T11:28:36.105Z,19.51
2023-05-08T11:31:06.700Z,19.59
2023-05-08T11:33:38.309Z,19.63
2023-05-08T11:36:19.488Z,19.67
2023-05-08T11:39:12.867Z,19.76
2023-05-08T11:41:42.443Z,19.75
2023-05-08T11:44:22.620Z,19.76
2023-05-08T11:46:54.876Z,19.76
2023-05-08T11:49:29.590Z,19.75
2023-05-08T11:52:01.772Z,19.78
2023-05-08T11:54:33.794Z,19.76
2023-05-08T11:57:03.325Z,19.74
2023-05-08T11:59:38.361Z,19.87
2023-05-08T12:02:09.509Z,19.85
2023-05-08T12:04:49.181Z,19.80
2023-05-08T12:07:18.979Z,19.78
2023-05-08T12:09:50.449Z,19.76
2023-05-08T12:12:19.904Z,19.75
2023-05-08T12:14:52.502Z,19.65
2023-05-08T12:17:22.271Z,19.41
2023-05-08T12:20:04.385Z,19.12
2023-05-08T12:22:34.091Z,18.87
2023-05-08T12:25:06.623Z,18.70
2023-05-08T12:27:36.308Z,18.56
2023-05-08T12:30:10.587Z,18.44
2023-05-08T12:32:42.182Z,18.38
2023-05-08T12:35:14.689Z,18.12
2023-05-08T12:37:44.383Z,17.86
2023-05-08T12:40:29.196Z,17.62
2023-05-08T12:42:59.151Z,17.29
2023-05-08T12:45:31.087Z,16.99
2023-05-08T12:50:47.287Z,16.95
2023-05-08T12:53:18.540Z,16.96
2023-05-08T12:55:55.724Z,17.04
2023-05-08T12:58:29.124Z,16.68
2023-05-08T13:01:13.538Z,16.69
2023-05-08T13:03:44.760Z,17.20
2023-05-08T13:06:25.051Z,17.35
2023-05-08T13:08:56.881Z,17.37
2023-05-08T13:11:35.616Z,17.14
2023-05-08T13:14:05.124Z,17.02
2023-05-08T13:16:45.203Z,17.02
2023-05-08T13:19:15.899Z,16.87
2023-05-08T13:21:48.172Z,16.87
2023-05-08T13:24:17.611Z,16.70
2023-05-08T13:26:47.588Z,16.47
2023-05-08T13:29:17.512Z,16.30
2023-05-08T13:31:46.984Z,16.25
2023-05-08T13:34:16.542Z,16.26
2023-05-08T13:36:47.568Z,16.20
2023-05-08T13:39:17.032Z,16.20
2023-05-08T13:41:46.471Z,16.08
2023-05-08T13:44:15.840Z,16.11
2023-05-08T13:46:45.492Z,16.38
2023-05-08T13:49:14.916Z,16.30
2023-05-08T13:51:47.244Z,16.01
2023-05-08T13:54:19.027Z,16.17
2023-05-08T13:56:50.077Z,16.29
2023-05-08T13:59:19.681Z,16.40
2023-05-08T14:01:49.166Z,16.46
2023-05-08T14:04:19.447Z,16.52
2023-05-08T14:06:51.454Z,16.56
2023-05-08T14:09:21.114Z,16.50
2023-05-08T14:11:50.507Z,16.38
2023-05-08T14:14:19.993Z,16.45
2023-05-08T14:16:51.247Z,16.29
2023-05-08T14:19:20.832Z,16.33
2023-05-08T14:21:51.759Z,16.69
2023-05-08T14:24:21.216Z,16.68
2023-05-08T14:26:50.708Z,16.60
2023-05-08T14:29:21.650Z,16.63
2023-05-08T14:31:51.312Z,16.61
2023-05-08T14:34:20.793Z,16.54
2023-05-08T14:36:51.651Z,16.35
2023-05-08T14:39:21.168Z,16.22
2023-05-08T14:42:14.319Z,16.09
2023-05-08T14:44:40.384Z,15.93
2023-05-08T14:47:09.867Z,15.95
2023-05-08T14:49:39.542Z,16.01
2023-05-08T14:52:10.444Z,16.02
2023-05-08T14:54:40.041Z,15.87
2023-05-08T14:57:09.641Z,15.77
2023-05-08T14:59:49.011Z,15.76
2023-05-08T15:02:22.058Z,15.73
2023-05-08T15:04:51.798Z,15.80
2023-05-08T15:07:22.729Z,15.65
2023-05-08T15:09:53.383Z,15.54
2023-05-08T15:12:22.857Z,15.45
2023-05-08T15:14:52.465Z,15.28
2023-05-08T15:17:22.058Z,15.24
2023-05-08T15:19:51.515Z,15.23
2023-05-08T15:22:22.594Z,15.16
2023-05-08T15:24:52.116Z,15.17
2023-05-08T15:27:21.896Z,15.13
2023-05-08T15:29:51.996Z,15.15
2023-05-08T15:32:21.534Z,15.16
2023-05-08T15:34:51.094Z,15.12
2023-05-08T15:37:22.028Z,15.10
2023-05-08T15:39:51.731Z,15.06
2023-05-08T15:42:22.046Z,14.99
2023-05-08T15:44:55.020Z,14.93
2023-05-08T15:50:44.080Z,14.75
2023-05-08T15:53:14.326Z,14.63
2023-05-08T15:55:43.802Z,14.46
2023-05-08T15:58:13.284Z,14.35
2023-05-08T16:00:45.203Z,14.34
2023-05-08T16:03:15.023Z,14.28
2023-05-08T16:05:46.341Z,14.23
2023-05-08T16:08:16.048Z,14.15
2023-05-08T16:10:45.507Z,14.13
2023-05-08T16:13:15.005Z,14.02
2023-05-08T16:15:44.521Z,13.75
2023-05-08T16:18:14.105Z,13.61
2023-05-08T16:20:45.356Z,13.56
2023-05-08T16:23:15.346Z,13.53
2023-05-08T16:25:44.951Z,13.37
2023-05-08T16:28:14.602Z,13.34
2023-05-08T16:30:44.283Z,13.34
2023-05-08T16:33:13.951Z,13.31
2023-05-08T16:35:45.107Z,13.25
2023-05-08T16:38:14.864Z,13.27
2023-05-08T16:40:45.321Z,13.17
2023-05-08T16:43:15.005Z,13.09
2023-05-08T16:45:44.641Z,12.98
2023-05-08T16:48:14.268Z,12.84
2023-05-08T16:50:45.297Z,12.83
2023-05-08T16:53:15.896Z,12.84
2023-05-08T16:55:45.545Z,12.75
2023-05-08T16:58:16.157Z,12.67
2023-05-08T17:00:46.193Z,12.52
2023-05-08T17:03:15.916Z,12.53
2023-05-08T17:05:46.961Z,12.49
2023-05-08T17:08:16.515Z,12.53
2023-05-08T17:10:45.997Z,12.61
2023-05-08T17:13:15.630Z,12.66
2023-05-08T17:15:45.482Z,12.69
2023-05-08T17:18:15.184Z,12.68
2023-05-08T17:20:46.075Z,12.62
2023-05-08T17:23:15.586Z,12.54
2023-05-08T17:25:45.092Z,12.44
2023-05-08T17:28:14.699Z,12.37
2023-05-08T17:30:45.830Z,12.35
2023-05-08T17:33:15.913Z,12.38
2023-05-08T17:35:46.835Z,12.35
2023-05-08T17:38:16.304Z,12.23
2023-05-08T17:40:45.926Z,12.24
2023-05-08T17:43:15.518Z,12.27
2023-05-08T17:45:45.757Z,12.22
2023-05-08T17:48:15.334Z,12.21
2023-05-08T17:50:47.567Z,12.09
2023-05-08T17:53:17.067Z,12.03
2023-05-08T17:55:46.459Z,11.98
2023-05-08T17:58:16.072Z,12.03
2023-05-08T18:00:45.457Z,12.05
2023-05-08T18:03:15.186Z,12.05
2023-05-08T18:05:46.085Z,12.14
2023-05-08T18:08:15.688Z,12.17
2023-05-08T18:10:45.428Z,12.11
2023-05-08T18:13:16.027Z,12.04
2023-05-08T18:15:45.596Z,12.02
2023-05-08T18:18:15.938Z,11.95
2023-05-08T18:20:46.677Z,11.80
2023-05-08T18:23:16.337Z,11.73
2023-05-08T18:25:45.889Z,11.72
2023-05-08T18:28:17.134Z,11.77
2023-05-08T18:30:46.700Z,11.89
2023-05-08T18:33:16.377Z,12.02
2023-05-08T18:35:47.477Z,11.99
2023-05-08T18:38:18.104Z,12.01
2023-05-08T18:40:47.729Z,12.07
2023-05-08T18:43:17.232Z,12.15
2023-05-08T18:45:46.837Z,12.22
2023-05-08T18:50:43.920Z,12.14
2023-05-08T18:53:14.780Z,12.04
2023-05-08T18:55:44.248Z,12.05
2023-05-08T18:58:15.090Z,12.14
2023-05-08T19:00:44.605Z,12.19
2023-05-08T19:03:14.178Z,12.17
2023-05-08T19:05:45.394Z,12.15
2023-05-08T19:08:16.216Z,12.11
2023-05-08T19:10:45.836Z,12.14
2023-05-08T19:13:15.363Z,12.19
2023-05-08T19:15:44.976Z,12.20
2023-05-08T19:18:15.088Z,12.19
2023-05-08T19:20:46.017Z,12.17
2023-05-08T19:23:17.581Z,12.16
2023-05-08T19:25:48.160Z,12.21
2023-05-08T19:28:17.752Z,12.23
2023-05-08T19:30:47.346Z,12.23
2023-05-08T19:33:20.769Z,12.27
2023-05-08T19:35:52.085Z,12.32
2023-05-08T19:38:21.592Z,12.30
2023-05-08T19:40:57.274Z,12.32
2023-05-08T19:43:28.056Z,12.30
2023-05-08T19:45:58.165Z,12.35
2023-05-08T19:48:27.690Z,12.38
2023-05-08T19:50:58.632Z,12.39
2023-05-08T19:53:28.313Z,12.28
2023-05-08T19:55:57.750Z,12.15
2023-05-08T19:58:27.285Z,12.01
2023-05-08T20:00:56.707Z,11.84
2023-05-08T20:03:26.229Z,11.70
2023-05-08T20:05:57.572Z,11.60
2023-05-08T20:08:27.189Z,11.51
2023-05-08T20:10:56.586Z,11.44
2023-05-08T20:13:26.234Z,11.32
2023-05-08T20:15:55.964Z,11.30
2023-05-08T20:18:25.543Z,11.31
2023-05-08T20:20:55.102Z,11.22
2023-05-08T20:23:26.206Z,11.17
2023-05-08T20:25:55.691Z,11.14
2023-05-08T20:28:26.344Z,11.06
2023-05-08T20:30:55.837Z,11.05
2023-05-08T20:33:25.385Z,11.05
2023-05-08T20:35:55.506Z,11.04
2023-05-08T20:38:26.376Z,11.07
2023-05-08T20:41:00.209Z,11.01
2023-05-08T20:43:30.498Z,10.93
2023-05-08T20:45:59.995Z,10.85
2023-05-08T20:48:29.618Z,10.88
2023-05-08T20:50:59.005Z,10.94
2023-05-08T20:53:29.762Z,10.87
2023-05-08T20:56:03.069Z,10.76
2023-05-08T20:58:32.596Z,10.75
2023-05-08T21:01:02.173Z,10.80
2023-05-08T21:03:31.598Z,10.75
2023-05-08T21:06:01.126Z,10.76
2023-05-08T21:08:32.184Z,10.73
2023-05-08T21:11:03.982Z,10.67
2023-05-08T21:13:33.481Z,10.62
2023-05-08T21:16:02.913Z,10.60
2023-05-08T21:18:32.402Z,10.60
2023-05-08T21:21:01.866Z,10.66
2023-05-08T21:23:32.905Z,10.60
2023-05-08T21:26:02.807Z,10.62
2023-05-08T21:28:32.338Z,10.65
2023-05-08T21:31:01.762Z,10.61
2023-05-08T21:33:31.361Z,10.53
2023-05-08T21:36:01.859Z,10.46
2023-05-08T21:38:32.780Z,10.45
2023-05-08T21:41:08.735Z,10.44
2023-05-08T21:43:38.997Z,10.47
2023-05-08T21:46:09.566Z,10.42
2023-05-08T21:50:43.688Z,10.42
2023-05-08T21:53:13.270Z,10.45
2023-05-08T21:55:42.745Z,10.42
2023-05-08T21:58:12.304Z,10.42
2023-05-08T22:00:42.286Z,10.33
2023-05-08T22:03:11.798Z,10.31
2023-05-08T22:05:42.747Z,10.28
2023-05-08T22:08:12.265Z,10.38
2023-05-08T22:10:44.402Z,10.42
2023-05-08T22:13:14.920Z,10.48
2023-05-08T22:15:45.207Z,10.44
2023-05-08T22:18:14.867Z,10.47
2023-05-08T22:20:46.048Z,10.38
2023-05-08T22:23:15.529Z,10.40
2023-05-08T22:25:45.289Z,10.47
2023-05-08T22:28:14.797Z,10.54
2023-05-08T22:30:44.306Z,10.58
2023-05-08T22:33:13.858Z,10.61
2023-05-08T22:35:44.762Z,10.67
2023-05-08T22:38:14.340Z,10.57
2023-05-08T22:40:44.136Z,10.50
2023-05-08T22:43:13.735Z,10.58
2023-05-08T22:45:43.413Z,10.64
2023-05-08T22:48:12.950Z,10.60
2023-05-08T22:50:42.560Z,10.51
2023-05-08T22:53:13.461Z,10.44
2023-05-08T22:55:42.945Z,10.39
2023-05-08T22:58:12.384Z,10.32
2023-05-08T23:00:42.932Z,10.28
2023-05-08T23:03:12.405Z,10.29
2023-05-08T23:05:41.967Z,10.29
2023-05-08T23:08:12.854Z,10.35
2023-05-08T23:10:42.630Z,10.36
2023-05-08T23:13:12.271Z,10.37
2023-05-08T23:15:41.996Z,10.44
2023-05-08T23:18:11.561Z,10.52
2023-05-08T23:20:40.977Z,10.60
2023-05-08T23:23:11.902Z,10.63
2023-05-08T23:25:41.266Z,10.63
2023-05-08T23:28:10.700Z,10.58
2023-05-08T23:30:40.107Z,10.52
2023-05-08T23:33:09.758Z,10.45
2023-05-08T23:35:39.279Z,10.38
2023-05-08T23:38:08.817Z,10.35
2023-05-08T23:40:39.624Z,10.37
2023-05-08T23:43:09.196Z,10.34
2023-05-08T23:45:38.788Z,10.28
2023-05-08T23:48:08.742Z,10.30
2023-05-08T23:50:38.262Z,10.34
2023-05-08T23:53:07.724Z,10.16
2023-05-08T23:55:39.611Z,10.17
2023-05-08T23:58:09.068Z,10.23
